sensor_id;sensor_type;location;lat;lon;timestamp;pressure;altitude;pressure_sealevel;temperature
68952;BMP180;56000;51.146;17.112;2023-06-14T00:00:07;100286.80;;;11.70
68952;BMP180;56000;51.146;17.112;2023-06-14T00:02:41;100287.40;;;11.70
68952;BMP180;56000;51.146;17.112;2023-06-14T00:05:15;100285.80;;;11.60
68952;BMP180;56000;51.146;17.112;2023-06-14T00:07:48;100288.00;;;11.60
68952;BMP180;56000;51.146;17.112;2023-06-14T00:10:25;100287.20;;;11.60
68952;BMP180;56000;51.146;17.112;2023-06-14T00:13:02;100286.60;;;11.58
68952;BMP180;56000;51.146;17.112;2023-06-14T00:15:35;100287.60;;;11.50
68952;BMP180;56000;51.146;17.112;2023-06-14T00:18:08;100284.40;;;11.50
68952;BMP180;56000;51.146;17.112;2023-06-14T00:20:43;100287.80;;;11.50
68952;BMP180;56000;51.146;17.112;2023-06-14T00:23:17;100293.00;;;11.40
68952;BMP180;56000;51.146;17.112;2023-06-14T00:25:50;100294.60;;;11.40
68952;BMP180;56000;51.146;17.112;2023-06-14T00:28:23;100292.40;;;11.32
68952;BMP180;56000;51.146;17.112;2023-06-14T00:30:56;100298.40;;;11.30
68952;BMP180;56000;51.146;17.112;2023-06-14T00:33:32;100298.20;;;11.30
68952;BMP180;56000;51.146;17.112;2023-06-14T00:36:06;100299.20;;;11.22
68952;BMP180;56000;51.146;17.112;2023-06-14T00:38:39;100301.40;;;11.20
68952;BMP180;56000;51.146;17.112;2023-06-14T00:41:12;100296.00;;;11.20
68952;BMP180;56000;51.146;17.112;2023-06-14T00:43:46;100297.00;;;11.20
68952;BMP180;56000;51.146;17.112;2023-06-14T00:46:19;100300.40;;;11.16
68952;BMP180;56000;51.146;17.112;2023-06-14T00:48:54;100302.60;;;11.10
68952;BMP180;56000;51.146;17.112;2023-06-14T00:51:27;100299.80;;;11.10
68952;BMP180;56000;51.146;17.112;2023-06-14T00:54:01;100298.80;;;11.04
68952;BMP180;56000;51.146;17.112;2023-06-14T00:56:35;100301.60;;;11.00
68952;BMP180;56000;51.146;17.112;2023-06-14T00:59:08;100295.40;;;11.00
68952;BMP180;56000;51.146;17.112;2023-06-14T01:01:42;100299.20;;;11.00
68952;BMP180;56000;51.146;17.112;2023-06-14T01:04:16;100300.60;;;10.98
68952;BMP180;56000;51.146;17.112;2023-06-14T01:07:10;100304.60;;;10.90
68952;BMP180;56000;51.146;17.112;2023-06-14T01:09:58;100302.20;;;10.90
68952;BMP180;56000;51.146;17.112;2023-06-14T01:12:42;100298.20;;;10.90
68952;BMP180;56000;51.146;17.112;2023-06-14T01:15:17;100300.20;;;10.90
68952;BMP180;56000;51.146;17.112;2023-06-14T01:17:52;100298.40;;;10.90
68952;BMP180;56000;51.146;17.112;2023-06-14T01:20:30;100298.20;;;10.90
68952;BMP180;56000;51.146;17.112;2023-06-14T01:23:04;100298.20;;;10.90
68952;BMP180;56000;51.146;17.112;2023-06-14T01:25:37;100294.60;;;10.90
68952;BMP180;56000;51.146;17.112;2023-06-14T01:28:17;100297.40;;;10.90
68952;BMP180;56000;51.146;17.112;2023-06-14T01:30:53;100298.80;;;10.80
68952;BMP180;56000;51.146;17.112;2023-06-14T01:33:28;100297.80;;;10.80
68952;BMP180;56000;51.146;17.112;2023-06-14T01:36:03;100291.60;;;10.80
68952;BMP180;56000;51.146;17.112;2023-06-14T01:38:38;100290.40;;;10.80
68952;BMP180;56000;51.146;17.112;2023-06-14T01:41:12;100287.60;;;10.86
68952;BMP180;56000;51.146;17.112;2023-06-14T01:43:47;100291.40;;;10.90
68952;BMP180;56000;51.146;17.112;2023-06-14T01:46:20;100289.40;;;10.90
68952;BMP180;56000;51.146;17.112;2023-06-14T01:48:54;100287.60;;;10.90
68952;BMP180;56000;51.146;17.112;2023-06-14T01:51:27;100287.60;;;10.90
68952;BMP180;56000;51.146;17.112;2023-06-14T01:54:00;100282.80;;;10.90
68952;BMP180;56000;51.146;17.112;2023-06-14T01:56:35;100283.60;;;10.90
68952;BMP180;56000;51.146;17.112;2023-06-14T01:59:08;100286.00;;;11.00
68952;BMP180;56000;51.146;17.112;2023-06-14T02:01:42;100286.00;;;11.00
68952;BMP180;56000;51.146;17.112;2023-06-14T02:04:15;100281.80;;;11.00
68952;BMP180;56000;51.146;17.112;2023-06-14T02:06:48;100278.80;;;11.10
68952;BMP180;56000;51.146;17.112;2023-06-14T02:09:22;100280.40;;;11.10
68952;BMP180;56000;51.146;17.112;2023-06-14T02:11:57;100279.40;;;11.10
68952;BMP180;56000;51.146;17.112;2023-06-14T02:14:31;100281.40;;;11.10
68952;BMP180;56000;51.146;17.112;2023-06-14T02:17:05;100282.40;;;11.10
68952;BMP180;56000;51.146;17.112;2023-06-14T02:19:39;100283.20;;;11.16
68952;BMP180;56000;51.146;17.112;2023-06-14T02:22:12;100284.80;;;11.20
68952;BMP180;56000;51.146;17.112;2023-06-14T02:24:46;100286.80;;;11.20
68952;BMP180;56000;51.146;17.112;2023-06-14T02:27:27;100292.20;;;11.30
68952;BMP180;56000;51.146;17.112;2023-06-14T02:30:00;100286.40;;;11.32
68952;BMP180;56000;51.146;17.112;2023-06-14T02:32:33;100285.20;;;11.40
68952;BMP180;56000;51.146;17.112;2023-06-14T02:35:10;100287.60;;;11.44
68952;BMP180;56000;51.146;17.112;2023-06-14T02:37:45;100282.00;;;11.50
68952;BMP180;56000;51.146;17.112;2023-06-14T02:40:18;100282.80;;;11.50
68952;BMP180;56000;51.146;17.112;2023-06-14T02:42:52;100282.20;;;11.50
68952;BMP180;56000;51.146;17.112;2023-06-14T02:45:25;100287.40;;;11.44
68952;BMP180;56000;51.146;17.112;2023-06-14T02:47:58;100284.40;;;11.40
68952;BMP180;56000;51.146;17.112;2023-06-14T02:50:31;100282.20;;;11.40
68952;BMP180;56000;51.146;17.112;2023-06-14T02:53:04;100280.00;;;11.40
68952;BMP180;56000;51.146;17.112;2023-06-14T02:55:38;100284.80;;;11.40
68952;BMP180;56000;51.146;17.112;2023-06-14T02:58:12;100278.20;;;11.40
68952;BMP180;56000;51.146;17.112;2023-06-14T03:00:46;100272.20;;;11.40
68952;BMP180;56000;51.146;17.112;2023-06-14T03:03:19;100273.60;;;11.40
68952;BMP180;56000;51.146;17.112;2023-06-14T03:05:55;100287.40;;;11.42
68952;BMP180;56000;51.146;17.112;2023-06-14T03:08:31;100285.20;;;11.50
68952;BMP180;56000;51.146;17.112;2023-06-14T03:11:12;100284.40;;;11.50
68952;BMP180;56000;51.146;17.112;2023-06-14T03:13:46;100286.40;;;11.50
68952;BMP180;56000;51.146;17.112;2023-06-14T03:16:20;100287.20;;;11.56
68952;BMP180;56000;51.146;17.112;2023-06-14T03:18:56;100280.00;;;11.60
68952;BMP180;56000;51.146;17.112;2023-06-14T03:21:30;100286.40;;;11.68
68952;BMP180;56000;51.146;17.112;2023-06-14T03:24:05;100282.00;;;11.70
68952;BMP180;56000;51.146;17.112;2023-06-14T03:26:39;100280.60;;;11.80
68952;BMP180;56000;51.146;17.112;2023-06-14T03:29:13;100280.60;;;11.96
68952;BMP180;56000;51.146;17.112;2023-06-14T03:32:00;100284.40;;;12.10
68952;BMP180;56000;51.146;17.112;2023-06-14T03:34:39;100279.40;;;12.30
68952;BMP180;56000;51.146;17.112;2023-06-14T03:37:18;100282.80;;;12.40
68952;BMP180;56000;51.146;17.112;2023-06-14T03:39:51;100289.00;;;12.60
68952;BMP180;56000;51.146;17.112;2023-06-14T03:42:26;100290.80;;;12.80
68952;BMP180;56000;51.146;17.112;2023-06-14T03:44:59;100289.80;;;12.96
68952;BMP180;56000;51.146;17.112;2023-06-14T03:47:33;100288.00;;;13.10
68952;BMP180;56000;51.146;17.112;2023-06-14T03:50:08;100278.20;;;13.20
68952;BMP180;56000;51.146;17.112;2023-06-14T03:52:41;100279.80;;;13.30
68952;BMP180;56000;51.146;17.112;2023-06-14T03:55:15;100283.80;;;13.40
68952;BMP180;56000;51.146;17.112;2023-06-14T03:57:52;100287.20;;;13.40
68952;BMP180;56000;51.146;17.112;2023-06-14T04:00:25;100296.20;;;13.40
68952;BMP180;56000;51.146;17.112;2023-06-14T04:02:59;100290.60;;;13.40
68952;BMP180;56000;51.146;17.112;2023-06-14T04:05:34;100286.60;;;13.44
68952;BMP180;56000;51.146;17.112;2023-06-14T04:08:08;100289.00;;;13.50
68952;BMP180;56000;51.146;17.112;2023-06-14T04:10:41;100288.60;;;13.50
68952;BMP180;56000;51.146;17.112;2023-06-14T04:13:15;100291.00;;;13.60
68952;BMP180;56000;51.146;17.112;2023-06-14T04:15:48;100286.20;;;13.70
68952;BMP180;56000;51.146;17.112;2023-06-14T04:18:27;100289.00;;;13.80
68952;BMP180;56000;51.146;17.112;2023-06-14T04:21:01;100291.20;;;14.00
68952;BMP180;56000;51.146;17.112;2023-06-14T04:23:34;100290.20;;;14.18
68952;BMP180;56000;51.146;17.112;2023-06-14T04:26:07;100289.80;;;14.30
68952;BMP180;56000;51.146;17.112;2023-06-14T04:28:43;100289.80;;;14.44
68952;BMP180;56000;51.146;17.112;2023-06-14T04:31:17;100310.20;;;14.60
68952;BMP180;56000;51.146;17.112;2023-06-14T04:33:51;100301.60;;;14.64
68952;BMP180;56000;51.146;17.112;2023-06-14T04:36:26;100302.80;;;14.70
68952;BMP180;56000;51.146;17.112;2023-06-14T04:38:59;100303.20;;;14.70
68952;BMP180;56000;51.146;17.112;2023-06-14T04:41:35;100298.80;;;14.60
68952;BMP180;56000;51.146;17.112;2023-06-14T04:44:08;100301.00;;;14.50
68952;BMP180;56000;51.146;17.112;2023-06-14T04:46:45;100302.60;;;14.50
68952;BMP180;56000;51.146;17.112;2023-06-14T04:49:22;100306.00;;;14.60
68952;BMP180;56000;51.146;17.112;2023-06-14T04:51:59;100307.60;;;14.60
68952;BMP180;56000;51.146;17.112;2023-06-14T04:54:44;100317.80;;;14.70
68952;BMP180;56000;51.146;17.112;2023-06-14T04:57:21;100319.60;;;14.76
68952;BMP180;56000;51.146;17.112;2023-06-14T05:00:00;100324.60;;;14.80
68952;BMP180;56000;51.146;17.112;2023-06-14T05:02:37;100321.20;;;14.80
68952;BMP180;56000;51.146;17.112;2023-06-14T05:05:13;100320.80;;;14.90
68952;BMP180;56000;51.146;17.112;2023-06-14T05:07:48;100327.20;;;15.00
68952;BMP180;56000;51.146;17.112;2023-06-14T05:10:21;100324.60;;;15.00
68952;BMP180;56000;51.146;17.112;2023-06-14T05:12:54;100323.40;;;15.10
68952;BMP180;56000;51.146;17.112;2023-06-14T05:15:28;100323.40;;;15.22
68952;BMP180;56000;51.146;17.112;2023-06-14T05:18:01;100327.20;;;15.32
68952;BMP180;56000;51.146;17.112;2023-06-14T05:20:35;100324.60;;;15.50
68952;BMP180;56000;51.146;17.112;2023-06-14T05:23:10;100320.20;;;15.62
68952;BMP180;56000;51.146;17.112;2023-06-14T05:25:47;100318.60;;;15.70
68952;BMP180;56000;51.146;17.112;2023-06-14T05:28:20;100317.00;;;15.70
68952;BMP180;56000;51.146;17.112;2023-06-14T05:30:53;100312.20;;;15.60
68952;BMP180;56000;51.146;17.112;2023-06-14T05:33:27;100311.60;;;15.60
68952;BMP180;56000;51.146;17.112;2023-06-14T05:36:00;100316.20;;;15.70
68952;BMP180;56000;51.146;17.112;2023-06-14T05:38:34;100312.80;;;15.74
68952;BMP180;56000;51.146;17.112;2023-06-14T05:41:07;100316.20;;;15.80
68952;BMP180;56000;51.146;17.112;2023-06-14T05:43:40;100319.80;;;15.90
68952;BMP180;56000;51.146;17.112;2023-06-14T05:46:13;100322.60;;;15.98
68952;BMP180;56000;51.146;17.112;2023-06-14T05:48:46;100323.40;;;16.02
68952;BMP180;56000;51.146;17.112;2023-06-14T05:51:20;100327.40;;;16.10
68952;BMP180;56000;51.146;17.112;2023-06-14T05:53:53;100328.20;;;16.20
68952;BMP180;56000;51.146;17.112;2023-06-14T05:56:26;100332.20;;;16.20
68952;BMP180;56000;51.146;17.112;2023-06-14T05:58:59;100328.40;;;16.30
68952;BMP180;56000;51.146;17.112;2023-06-14T06:01:32;100335.00;;;16.50
68952;BMP180;56000;51.146;17.112;2023-06-14T06:04:08;100333.20;;;16.60
68952;BMP180;56000;51.146;17.112;2023-06-14T06:06:42;100330.00;;;16.80
68952;BMP180;56000;51.146;17.112;2023-06-14T06:09:15;100329.20;;;17.06
68952;BMP180;56000;51.146;17.112;2023-06-14T06:11:48;100331.20;;;17.34
68952;BMP180;56000;51.146;17.112;2023-06-14T06:14:24;100335.00;;;17.70
68952;BMP180;56000;51.146;17.112;2023-06-14T06:16:58;100337.80;;;18.02
68952;BMP180;56000;51.146;17.112;2023-06-14T06:19:31;100336.40;;;18.42
68952;BMP180;56000;51.146;17.112;2023-06-14T06:22:05;100336.60;;;18.80
68952;BMP180;56000;51.146;17.112;2023-06-14T06:24:38;100342.60;;;19.10
68952;BMP180;56000;51.146;17.112;2023-06-14T06:27:13;100345.80;;;19.24
68952;BMP180;56000;51.146;17.112;2023-06-14T06:29:47;100349.20;;;19.40
68952;BMP180;56000;51.146;17.112;2023-06-14T06:32:20;100345.20;;;19.40
68952;BMP180;56000;51.146;17.112;2023-06-14T06:34:53;100346.40;;;19.68
68952;BMP180;56000;51.146;17.112;2023-06-14T06:37:26;100346.80;;;19.96
68952;BMP180;56000;51.146;17.112;2023-06-14T06:39:59;100354.00;;;19.84
68952;BMP180;56000;51.146;17.112;2023-06-14T06:42:33;100357.60;;;19.58
68952;BMP180;56000;51.146;17.112;2023-06-14T06:45:11;100362.80;;;19.20
68952;BMP180;56000;51.146;17.112;2023-06-14T06:47:44;100360.80;;;18.84
68952;BMP180;56000;51.146;17.112;2023-06-14T06:50:19;100361.40;;;18.50
68952;BMP180;56000;51.146;17.112;2023-06-14T06:52:54;100363.00;;;18.30
68952;BMP180;56000;51.146;17.112;2023-06-14T06:55:27;100366.20;;;18.10
68952;BMP180;56000;51.146;17.112;2023-06-14T06:58:01;100375.00;;;17.90
68952;BMP180;56000;51.146;17.112;2023-06-14T07:00:36;100377.80;;;17.76
68952;BMP180;56000;51.146;17.112;2023-06-14T07:03:09;100371.20;;;17.80
68952;BMP180;56000;51.146;17.112;2023-06-14T07:05:43;100369.20;;;17.98
68952;BMP180;56000;51.146;17.112;2023-06-14T07:08:17;100368.40;;;18.22
68952;BMP180;56000;51.146;17.112;2023-06-14T07:10:50;100373.80;;;18.50
68952;BMP180;56000;51.146;17.112;2023-06-14T07:13:23;100365.20;;;18.66
68952;BMP180;56000;51.146;17.112;2023-06-14T07:16:01;100365.80;;;18.80
68952;BMP180;56000;51.146;17.112;2023-06-14T07:18:34;100357.60;;;19.00
68952;BMP180;56000;51.146;17.112;2023-06-14T07:21:09;100363.20;;;19.26
68952;BMP180;56000;51.146;17.112;2023-06-14T07:23:42;100364.20;;;19.50
68952;BMP180;56000;51.146;17.112;2023-06-14T07:26:15;100360.80;;;19.70
68952;BMP180;56000;51.146;17.112;2023-06-14T07:28:49;100365.40;;;19.98
68952;BMP180;56000;51.146;17.112;2023-06-14T07:31:22;100371.80;;;20.36
68952;BMP180;56000;51.146;17.112;2023-06-14T07:33:55;100366.60;;;20.70
68952;BMP180;56000;51.146;17.112;2023-06-14T07:36:29;100369.00;;;20.80
68952;BMP180;56000;51.146;17.112;2023-06-14T07:39:02;100372.80;;;20.70
68952;BMP180;56000;51.146;17.112;2023-06-14T07:41:37;100374.80;;;20.50
68952;BMP180;56000;51.146;17.112;2023-06-14T07:44:10;100371.80;;;20.46
68952;BMP180;56000;51.146;17.112;2023-06-14T07:46:43;100371.20;;;20.50
68952;BMP180;56000;51.146;17.112;2023-06-14T07:49:17;100370.60;;;20.68
68952;BMP180;56000;51.146;17.112;2023-06-14T07:51:51;100364.00;;;20.90
68952;BMP180;56000;51.146;17.112;2023-06-14T07:54:25;100371.20;;;21.00
68952;BMP180;56000;51.146;17.112;2023-06-14T07:56:59;100368.40;;;21.20
68952;BMP180;56000;51.146;17.112;2023-06-14T07:59:32;100371.80;;;21.30
68952;BMP180;56000;51.146;17.112;2023-06-14T08:02:06;100370.40;;;21.40
68952;BMP180;56000;51.146;17.112;2023-06-14T08:04:40;100370.00;;;21.50
68952;BMP180;56000;51.146;17.112;2023-06-14T08:07:13;100364.60;;;21.64
68952;BMP180;56000;51.146;17.112;2023-06-14T08:09:47;100364.60;;;21.70
68952;BMP180;56000;51.146;17.112;2023-06-14T08:12:20;100366.60;;;21.80
68952;BMP180;56000;51.146;17.112;2023-06-14T08:14:54;100366.40;;;21.90
68952;BMP180;56000;51.146;17.112;2023-06-14T08:17:45;100362.00;;;21.90
68952;BMP180;56000;51.146;17.112;2023-06-14T08:20:18;100363.20;;;21.80
68952;BMP180;56000;51.146;17.112;2023-06-14T08:22:52;100362.80;;;21.60
68952;BMP180;56000;51.146;17.112;2023-06-14T08:25:27;100356.40;;;21.50
68952;BMP180;56000;51.146;17.112;2023-06-14T08:28:00;100359.40;;;21.52
68952;BMP180;56000;51.146;17.112;2023-06-14T08:30:33;100361.40;;;21.50
68952;BMP180;56000;51.146;17.112;2023-06-14T08:33:06;100370.00;;;21.40
68952;BMP180;56000;51.146;17.112;2023-06-14T08:35:47;100370.20;;;21.20
68952;BMP180;56000;51.146;17.112;2023-06-14T08:38:20;100369.40;;;20.80
68952;BMP180;56000;51.146;17.112;2023-06-14T08:40:56;100370.00;;;20.70
68952;BMP180;56000;51.146;17.112;2023-06-14T08:43:30;100365.00;;;20.80
68952;BMP180;56000;51.146;17.112;2023-06-14T08:46:05;100369.00;;;20.90
68952;BMP180;56000;51.146;17.112;2023-06-14T08:48:40;100361.80;;;21.20
68952;BMP180;56000;51.146;17.112;2023-06-14T08:51:15;100366.00;;;21.40
68952;BMP180;56000;51.146;17.112;2023-06-14T08:53:52;100367.60;;;21.60
68952;BMP180;56000;51.146;17.112;2023-06-14T08:56:27;100371.20;;;21.72
68952;BMP180;56000;51.146;17.112;2023-06-14T08:59:03;100367.60;;;21.90
68952;BMP180;56000;51.146;17.112;2023-06-14T09:01:38;100370.00;;;22.00
68952;BMP180;56000;51.146;17.112;2023-06-14T09:04:22;100366.00;;;22.04
68952;BMP180;56000;51.146;17.112;2023-06-14T09:06:57;100366.80;;;22.10
68952;BMP180;56000;51.146;17.112;2023-06-14T09:09:40;100369.60;;;22.20
68952;BMP180;56000;51.146;17.112;2023-06-14T09:12:33;100374.40;;;22.60
68952;BMP180;56000;51.146;17.112;2023-06-14T09:15:09;100371.60;;;22.48
68952;BMP180;56000;51.146;17.112;2023-06-14T09:17:42;100368.20;;;22.28
68952;BMP180;56000;51.146;17.112;2023-06-14T09:20:15;100372.00;;;22.00
68952;BMP180;56000;51.146;17.112;2023-06-14T09:22:51;100378.40;;;21.74
68952;BMP180;56000;51.146;17.112;2023-06-14T09:25:24;100375.80;;;21.38
68952;BMP180;56000;51.146;17.112;2023-06-14T09:28:11;100382.80;;;20.90
68952;BMP180;56000;51.146;17.112;2023-06-14T09:30:44;100382.00;;;20.60
68952;BMP180;56000;51.146;17.112;2023-06-14T09:33:21;100380.40;;;20.44
68952;BMP180;56000;51.146;17.112;2023-06-14T09:35:57;100380.60;;;20.30
68952;BMP180;56000;51.146;17.112;2023-06-14T09:38:30;100379.20;;;20.10
68952;BMP180;56000;51.146;17.112;2023-06-14T09:41:05;100380.60;;;19.98
68952;BMP180;56000;51.146;17.112;2023-06-14T09:43:39;100389.00;;;19.80
68952;BMP180;56000;51.146;17.112;2023-06-14T09:46:12;100385.20;;;19.80
68952;BMP180;56000;51.146;17.112;2023-06-14T09:48:46;100385.20;;;19.80
68952;BMP180;56000;51.146;17.112;2023-06-14T09:51:20;100383.40;;;19.98
68952;BMP180;56000;51.146;17.112;2023-06-14T09:53:58;100380.80;;;20.22
68952;BMP180;56000;51.146;17.112;2023-06-14T09:56:36;100377.80;;;20.48
68952;BMP180;56000;51.146;17.112;2023-06-14T09:59:10;100372.80;;;20.86
68952;BMP180;56000;51.146;17.112;2023-06-14T10:01:46;100373.40;;;21.44
68952;BMP180;56000;51.146;17.112;2023-06-14T10:04:22;100375.20;;;21.98
68952;BMP180;56000;51.146;17.112;2023-06-14T10:06:56;100372.80;;;22.30
68952;BMP180;56000;51.146;17.112;2023-06-14T10:09:29;100377.40;;;22.56
68952;BMP180;56000;51.146;17.112;2023-06-14T10:12:04;100375.40;;;22.86
68952;BMP180;56000;51.146;17.112;2023-06-14T10:14:38;100376.60;;;23.18
68952;BMP180;56000;51.146;17.112;2023-06-14T10:17:17;100377.80;;;23.40
68952;BMP180;56000;51.146;17.112;2023-06-14T10:19:58;100371.40;;;23.50
68952;BMP180;56000;51.146;17.112;2023-06-14T10:22:40;100374.80;;;23.60
68952;BMP180;56000;51.146;17.112;2023-06-14T10:25:29;100374.80;;;23.70
68952;BMP180;56000;51.146;17.112;2023-06-14T10:28:20;100378.80;;;23.94
68952;BMP180;56000;51.146;17.112;2023-06-14T10:31:14;100367.80;;;24.22
68952;BMP180;56000;51.146;17.112;2023-06-14T10:33:58;100367.80;;;24.60
68952;BMP180;56000;51.146;17.112;2023-06-14T10:36:32;100362.60;;;25.68
68952;BMP180;56000;51.146;17.112;2023-06-14T10:39:10;100367.00;;;26.76
68952;BMP180;56000;51.146;17.112;2023-06-14T10:41:54;100369.40;;;27.30
68952;BMP180;56000;51.146;17.112;2023-06-14T10:44:47;100365.80;;;26.94
68952;BMP180;56000;51.146;17.112;2023-06-14T10:47:29;100366.40;;;26.10
68952;BMP180;56000;51.146;17.112;2023-06-14T10:50:07;100365.40;;;26.00
68952;BMP180;56000;51.146;17.112;2023-06-14T10:52:43;100366.80;;;25.80
68952;BMP180;56000;51.146;17.112;2023-06-14T10:55:18;100360.20;;;25.70
68952;BMP180;56000;51.146;17.112;2023-06-14T10:57:54;100357.60;;;25.60
68952;BMP180;56000;51.146;17.112;2023-06-14T11:00:30;100359.00;;;26.28
68952;BMP180;56000;51.146;17.112;2023-06-14T11:03:46;100356.80;;;26.10
68952;BMP180;56000;51.146;17.112;2023-06-14T11:06:29;100357.80;;;25.46
68952;BMP180;56000;51.146;17.112;2023-06-14T11:09:47;100361.80;;;25.10
68952;BMP180;56000;51.146;17.112;2023-06-14T11:12:24;100357.40;;;24.36
68952;BMP180;56000;51.146;17.112;2023-06-14T11:14:58;100356.20;;;23.78
68952;BMP180;56000;51.146;17.112;2023-06-14T11:17:32;100354.40;;;23.50
68952;BMP180;56000;51.146;17.112;2023-06-14T11:20:13;100353.60;;;23.50
68952;BMP180;56000;51.146;17.112;2023-06-14T11:22:52;100350.80;;;23.66
68952;BMP180;56000;51.146;17.112;2023-06-14T11:25:26;100354.80;;;23.60
68952;BMP180;56000;51.146;17.112;2023-06-14T11:28:00;100350.80;;;23.70
68952;BMP180;56000;51.146;17.112;2023-06-14T11:30:33;100350.40;;;23.92
68952;BMP180;56000;51.146;17.112;2023-06-14T11:33:10;100348.00;;;24.30
68952;BMP180;56000;51.146;17.112;2023-06-14T11:35:44;100350.00;;;24.40
68952;BMP180;56000;51.146;17.112;2023-06-14T11:38:17;100350.40;;;24.50
68952;BMP180;56000;51.146;17.112;2023-06-14T11:40:50;100348.40;;;24.40
68952;BMP180;56000;51.146;17.112;2023-06-14T11:43:23;100344.80;;;24.50
68952;BMP180;56000;51.146;17.112;2023-06-14T11:45:58;100349.00;;;24.50
68952;BMP180;56000;51.146;17.112;2023-06-14T11:48:42;100346.40;;;24.42
68952;BMP180;56000;51.146;17.112;2023-06-14T11:51:16;100347.20;;;24.34
68952;BMP180;56000;51.146;17.112;2023-06-14T11:53:50;100345.40;;;24.12
68952;BMP180;56000;51.146;17.112;2023-06-14T11:56:23;100349.20;;;23.78
68952;BMP180;56000;51.146;17.112;2023-06-14T11:58:57;100351.00;;;23.60
68952;BMP180;56000;51.146;17.112;2023-06-14T12:01:31;100348.00;;;23.40
68952;BMP180;56000;51.146;17.112;2023-06-14T12:04:04;100346.80;;;23.08
68952;BMP180;56000;51.146;17.112;2023-06-14T12:06:38;100357.60;;;22.46
68952;BMP180;56000;51.146;17.112;2023-06-14T12:09:12;100356.60;;;22.02
68952;BMP180;56000;51.146;17.112;2023-06-14T12:11:49;100357.00;;;21.56
68952;BMP180;56000;51.146;17.112;2023-06-14T12:14:29;100360.20;;;21.10
68952;BMP180;56000;51.146;17.112;2023-06-14T12:17:08;100352.20;;;20.80
68952;BMP180;56000;51.146;17.112;2023-06-14T12:19:46;100358.00;;;20.60
68952;BMP180;56000;51.146;17.112;2023-06-14T12:22:20;100355.60;;;20.32
68952;BMP180;56000;51.146;17.112;2023-06-14T12:24:53;100360.20;;;20.16
68952;BMP180;56000;51.146;17.112;2023-06-14T12:27:27;100355.80;;;20.00
68952;BMP180;56000;51.146;17.112;2023-06-14T12:30:05;100357.20;;;19.90
68952;BMP180;56000;51.146;17.112;2023-06-14T12:32:39;100356.00;;;19.80
68952;BMP180;56000;51.146;17.112;2023-06-14T12:35:13;100357.20;;;19.80
68952;BMP180;56000;51.146;17.112;2023-06-14T12:37:46;100352.20;;;19.90
68952;BMP180;56000;51.146;17.112;2023-06-14T12:40:20;100347.40;;;19.90
68952;BMP180;56000;51.146;17.112;2023-06-14T12:42:53;100340.20;;;20.08
68952;BMP180;56000;51.146;17.112;2023-06-14T12:45:26;100339.00;;;20.30
68952;BMP180;56000;51.146;17.112;2023-06-14T12:48:00;100337.20;;;20.60
68952;BMP180;56000;51.146;17.112;2023-06-14T12:50:33;100337.60;;;20.84
68952;BMP180;56000;51.146;17.112;2023-06-14T12:53:06;100334.40;;;21.10
68952;BMP180;56000;51.146;17.112;2023-06-14T12:55:39;100334.00;;;21.32
68952;BMP180;56000;51.146;17.112;2023-06-14T12:58:13;100336.60;;;21.60
68952;BMP180;56000;51.146;17.112;2023-06-14T13:00:48;100336.60;;;21.80
68952;BMP180;56000;51.146;17.112;2023-06-14T13:03:21;100334.20;;;21.80
68952;BMP180;56000;51.146;17.112;2023-06-14T13:05:55;100335.00;;;21.98
68952;BMP180;56000;51.146;17.112;2023-06-14T13:08:28;100334.20;;;22.10
68952;BMP180;56000;51.146;17.112;2023-06-14T13:11:01;100328.00;;;22.28
68952;BMP180;56000;51.146;17.112;2023-06-14T13:13:35;100324.80;;;22.40
68952;BMP180;56000;51.146;17.112;2023-06-14T13:16:08;100313.80;;;23.16
68952;BMP180;56000;51.146;17.112;2023-06-14T13:18:42;100318.60;;;24.86
68952;BMP180;56000;51.146;17.112;2023-06-14T13:21:15;100311.80;;;25.00
68952;BMP180;56000;51.146;17.112;2023-06-14T13:23:48;100313.40;;;24.80
68952;BMP180;56000;51.146;17.112;2023-06-14T13:26:22;100312.80;;;24.48
68952;BMP180;56000;51.146;17.112;2023-06-14T13:28:55;100311.80;;;24.20
68952;BMP180;56000;51.146;17.112;2023-06-14T13:31:28;100316.60;;;23.98
68952;BMP180;56000;51.146;17.112;2023-06-14T13:34:01;100313.80;;;23.80
68952;BMP180;56000;51.146;17.112;2023-06-14T13:36:36;100315.60;;;23.80
68952;BMP180;56000;51.146;17.112;2023-06-14T13:39:09;100316.20;;;23.78
68952;BMP180;56000;51.146;17.112;2023-06-14T13:41:43;100314.80;;;23.80
68952;BMP180;56000;51.146;17.112;2023-06-14T13:44:17;100315.00;;;24.00
68952;BMP180;56000;51.146;17.112;2023-06-14T13:46:52;100311.60;;;24.12
68952;BMP180;56000;51.146;17.112;2023-06-14T13:49:25;100299.60;;;25.86
68952;BMP180;56000;51.146;17.112;2023-06-14T13:51:59;100304.00;;;27.76
68952;BMP180;56000;51.146;17.112;2023-06-14T13:54:32;100307.20;;;29.74
68952;BMP180;56000;51.146;17.112;2023-06-14T13:57:06;100310.00;;;29.62
68952;BMP180;56000;51.146;17.112;2023-06-14T13:59:39;100316.00;;;28.42
68952;BMP180;56000;51.146;17.112;2023-06-14T14:02:13;100316.60;;;27.22
68952;BMP180;56000;51.146;17.112;2023-06-14T14:04:46;100317.40;;;26.06
68952;BMP180;56000;51.146;17.112;2023-06-14T14:07:24;100324.20;;;25.04
68952;BMP180;56000;51.146;17.112;2023-06-14T14:09:57;100323.40;;;24.26
68952;BMP180;56000;51.146;17.112;2023-06-14T14:12:30;100328.80;;;23.62
68952;BMP180;56000;51.146;17.112;2023-06-14T14:15:04;100329.00;;;22.88
68952;BMP180;56000;51.146;17.112;2023-06-14T14:17:39;100332.40;;;22.20
68952;BMP180;56000;51.146;17.112;2023-06-14T14:20:13;100332.60;;;21.76
68952;BMP180;56000;51.146;17.112;2023-06-14T14:22:48;100332.00;;;21.30
68952;BMP180;56000;51.146;17.112;2023-06-14T14:25:21;100334.00;;;20.96
68952;BMP180;56000;51.146;17.112;2023-06-14T14:27:54;100337.00;;;20.62